createdAt,value
2018-04-09T00:00:23.781Z,6.87
2018-04-09T00:01:27.672Z,6.95
2018-04-09T00:02:31.628Z,7.90
2018-04-09T00:03:36.372Z,6.90
2018-04-09T00:04:40.229Z,6.55
2018-04-09T00:05:44.123Z,6.62
2018-04-09T00:06:47.950Z,7.90
2018-04-09T00:07:52.592Z,8.13
2018-04-09T00:08:56.414Z,7.22
2018-04-09T00:10:00.231Z,6.30
2018-04-09T00:11:04.052Z,7.22
2018-04-09T00:12:08.663Z,6.30
2018-04-09T00:13:13.227Z,7.40
2018-04-09T00:14:17.057Z,6.45
2018-04-09T00:15:20.868Z,7.10
2018-04-09T00:16:25.430Z,6.87
2018-04-09T00:17:29.390Z,7.00
2018-04-09T00:18:33.503Z,7.43
2018-04-09T00:19:37.530Z,7.60
2018-04-09T00:20:41.438Z,7.93
2018-04-09T00:21:45.340Z,6.68
2018-04-09T00:22:49.240Z,7.68
2018-04-09T00:23:53.241Z,7.35
2018-04-09T00:24:57.875Z,6.50
2018-04-09T00:26:01.698Z,6.72
2018-04-09T00:27:06.308Z,6.95
2018-04-09T00:28:10.117Z,6.80
2018-04-09T00:29:13.950Z,7.40
2018-04-09T00:30:17.934Z,6.62
2018-04-09T00:31:21.770Z,6.80
2018-04-09T00:32:25.937Z,6.47
2018-04-09T00:33:29.902Z,8.52
2018-04-09T00:34:34.618Z,6.60
2018-04-09T00:35:38.464Z,6.53
2018-04-09T00:36:42.298Z,7.10
2018-04-09T00:37:46.926Z,6.30
2018-04-09T00:38:51.899Z,6.45
2018-04-09T00:39:55.776Z,5.65
2018-04-09T00:40:59.638Z,7.05
2018-04-09T00:42:03.525Z,6.93
2018-04-09T00:43:08.221Z,6.72
2018-04-09T00:44:12.193Z,6.40
2018-04-09T00:45:16.089Z,6.87
2018-04-09T00:46:20.178Z,6.65
2018-04-09T00:47:24.038Z,7.10
2018-04-09T00:48:27.948Z,8.20
2018-04-09T00:49:31.883Z,6.82
2018-04-09T00:50:36.202Z,7.07
2018-04-09T00:51:40.072Z,5.93
2018-04-09T00:52:44.194Z,6.47
2018-04-09T00:53:57.181Z,6.60
2018-04-09T00:55:01.990Z,6.85
2018-04-09T00:56:05.810Z,5.50
2018-04-09T00:57:09.632Z,6.78
2018-04-09T00:58:13.569Z,7.60
2018-04-09T00:59:17.921Z,7.20
2018-04-09T01:00:21.911Z,7.47
2018-04-09T01:01:26.204Z,7.50
2018-04-09T01:02:30.253Z,6.15
2018-04-09T01:03:34.271Z,6.62
2018-04-09T01:04:38.289Z,6.70
2018-04-09T01:05:42.882Z,6.07
2018-04-09T01:06:46.719Z,6.22
2018-04-09T01:07:50.664Z,6.75
2018-04-09T01:08:54.461Z,6.68
2018-04-09T01:09:58.355Z,6.47
2018-04-09T01:11:02.128Z,8.23
2018-04-09T01:12:06.031Z,6.60
2018-04-09T01:13:09.920Z,6.22
2018-04-09T01:14:13.822Z,5.85
2018-04-09T01:15:17.684Z,6.07
2018-04-09T01:16:21.720Z,7.30
2018-04-09T01:17:25.921Z,6.75
2018-04-09T01:18:30.103Z,6.43
2018-04-09T01:19:34.233Z,6.70
2018-04-09T01:20:38.196Z,6.00
2018-04-09T01:21:42.411Z,6.40
2018-04-09T01:22:46.456Z,6.43
2018-04-09T01:23:50.644Z,7.20
2018-04-09T01:24:54.929Z,6.12
2018-04-09T01:25:59.935Z,6.10
2018-04-09T01:27:04.841Z,6.57
2018-04-09T01:28:09.744Z,7.00
2018-04-09T01:29:13.706Z,6.12
2018-04-09T01:30:17.685Z,6.03
2018-04-09T01:31:21.688Z,7.43
2018-04-09T01:32:25.708Z,5.75
2018-04-09T01:33:29.771Z,6.85
2018-04-09T01:34:34.528Z,6.55
2018-04-09T01:35:38.513Z,6.37
2018-04-09T01:36:42.312Z,7.15
2018-04-09T01:37:46.546Z,6.75
2018-04-09T01:38:51.352Z,6.40
2018-04-09T01:39:56.341Z,6.90
2018-04-09T01:41:00.635Z,6.53
2018-04-09T01:42:04.775Z,6.90
2018-04-09T01:43:08.880Z,7.03
2018-04-09T01:44:12.990Z,6.60
2018-04-09T01:45:17.082Z,6.43
2018-04-09T01:46:20.894Z,7.53
2018-04-09T01:47:25.270Z,7.03
2018-04-09T01:48:29.328Z,6.70
2018-04-09T01:49:33.161Z,6.20
2018-04-09T01:50:37.186Z,6.78
2018-04-09T01:51:40.975Z,5.87
2018-04-09T01:52:45.052Z,5.85
2018-04-09T01:53:49.044Z,6.55
2018-04-09T01:54:52.985Z,5.60
2018-04-09T01:55:57.191Z,5.55
2018-04-09T01:57:01.153Z,6.10
2018-04-09T01:58:05.154Z,6.55
2018-04-09T01:59:09.226Z,7.50
2018-04-09T02:00:13.253Z,6.18
2018-04-09T02:01:17.183Z,8.10
2018-04-09T02:02:21.139Z,6.80
2018-04-09T02:03:25.841Z,6.93
2018-04-09T02:04:30.641Z,6.45
2018-04-09T02:05:34.589Z,5.60
2018-04-09T02:06:38.546Z,6.55
2018-04-09T02:07:42.500Z,6.10
2018-04-09T02:08:46.504Z,6.53
2018-04-09T02:09:50.471Z,6.15
2018-04-09T02:10:55.212Z,6.15
2018-04-09T02:11:59.168Z,6.47
2018-04-09T02:13:04.142Z,6.35
2018-04-09T02:14:08.261Z,6.45
2018-04-09T02:15:12.722Z,5.97
2018-04-09T02:16:16.594Z,6.72
2018-04-09T02:17:20.423Z,6.87
2018-04-09T02:18:25.009Z,6.70
2018-04-09T02:19:28.825Z,7.03
2018-04-09T02:20:33.490Z,6.03
2018-04-09T02:21:37.325Z,5.57
2018-04-09T02:22:42.303Z,6.12
2018-04-09T02:23:46.167Z,6.47
2018-04-09T02:24:50.040Z,6.10
2018-04-09T02:25:55.026Z,6.12
2018-04-09T02:26:58.997Z,6.45
2018-04-09T02:28:02.949Z,6.45
2018-04-09T02:29:06.895Z,6.75
2018-04-09T02:30:10.814Z,6.32
2018-04-09T02:31:14.826Z,7.47
2018-04-09T02:32:18.760Z,5.90
2018-04-09T02:33:22.896Z,5.80
2018-04-09T02:34:27.100Z,5.82
2018-04-09T02:35:31.310Z,5.50
2018-04-09T02:36:35.268Z,7.12
2018-04-09T02:37:39.254Z,5.72
2018-04-09T02:38:43.190Z,6.37
2018-04-09T02:39:47.272Z,7.62
2018-04-09T02:40:51.973Z,6.07
2018-04-09T02:41:56.008Z,5.87
2018-04-09T02:42:59.963Z,5.32
2018-04-09T02:44:03.980Z,6.40
2018-04-09T02:45:07.804Z,6.53
2018-04-09T02:46:11.616Z,7.32
2018-04-09T02:47:15.401Z,6.50
2018-04-09T02:48:19.211Z,6.12
2018-04-09T02:49:22.993Z,4.95
2018-04-09T02:50:26.877Z,6.53
2018-04-09T02:51:31.410Z,5.55
2018-04-09T02:52:35.199Z,7.40
2018-04-09T02:53:39.045Z,6.70
2018-04-09T02:54:42.993Z,5.50
2018-04-09T02:55:46.796Z,6.55
2018-04-09T02:56:50.591Z,6.68
2018-04-09T02:57:54.396Z,6.00
2018-04-09T02:58:58.243Z,5.90
2018-04-09T03:00:02.038Z,6.60
2018-04-09T03:01:06.677Z,6.75
2018-04-09T03:02:10.524Z,6.00
2018-04-09T03:03:14.376Z,6.78
2018-04-09T03:04:18.229Z,6.90
2018-04-09T03:05:22.178Z,5.50
2018-04-09T03:06:26.028Z,6.55
2018-04-09T03:07:29.869Z,5.57
2018-04-09T03:08:33.661Z,6.75
2018-04-09T03:09:37.516Z,5.55
2018-04-09T03:10:41.329Z,5.53
2018-04-09T03:11:45.885Z,5.70
2018-04-09T03:12:49.668Z,5.62
2018-04-09T03:13:53.830Z,6.20
2018-04-09T03:14:58.471Z,6.15
2018-04-09T03:16:03.069Z,6.72
2018-04-09T03:17:06.944Z,5.80
2018-04-09T03:18:12.287Z,6.10
2018-04-09T03:19:16.244Z,6.53
2018-04-09T03:20:20.342Z,5.20
2018-04-09T03:21:24.122Z,5.70
2018-04-09T03:22:27.985Z,7.05
2018-04-09T03:23:32.800Z,6.70
2018-04-09T03:24:36.750Z,6.32
2018-04-09T03:25:40.676Z,5.97
2018-04-09T03:26:44.635Z,5.95
2018-04-09T03:27:48.631Z,5.90
2018-04-09T03:28:52.607Z,5.43
2018-04-09T03:29:57.369Z,5.68
2018-04-09T03:31:01.307Z,5.57
2018-04-09T03:32:06.117Z,5.32
2018-04-09T03:33:09.925Z,5.07
2018-04-09T03:34:13.875Z,5.82
2018-04-09T03:35:17.826Z,6.78
2018-04-09T03:36:21.800Z,6.00
2018-04-09T03:37:25.780Z,6.12
2018-04-09T03:38:29.768Z,5.65
2018-04-09T03:39:33.749Z,6.57
2018-04-09T03:42:34.393Z,6.05
2018-04-09T03:43:38.409Z,5.50
2018-04-09T03:44:42.389Z,5.18
2018-04-09T03:45:46.354Z,5.62
2018-04-09T03:46:51.117Z,5.65
2018-04-09T03:47:55.369Z,5.70
2018-04-09T03:48:59.372Z,5.65
2018-04-09T03:50:03.344Z,5.87
2018-04-09T03:51:07.334Z,5.95
2018-04-09T03:52:11.304Z,6.87
2018-04-09T03:53:15.341Z,5.03
2018-04-09T03:54:19.369Z,6.40
2018-04-09T03:56:32.363Z,6.30
2018-04-09T03:57:36.320Z,5.37
2018-04-09T03:58:40.249Z,5.57
2018-04-09T03:59:44.220Z,5.70
2018-04-09T04:00:48.245Z,6.25
2018-04-09T04:01:52.207Z,6.85
2018-04-09T04:02:57.015Z,6.40
2018-04-09T04:04:01.783Z,5.50
2018-04-09T04:05:05.796Z,6.10
2018-04-09T04:06:09.821Z,5.68
2018-04-09T04:07:13.828Z,6.85
2018-04-09T04:08:18.643Z,5.40
2018-04-09T04:09:22.584Z,4.95
2018-04-09T04:10:26.544Z,6.87
2018-04-09T04:11:30.513Z,6.55
2018-04-09T04:12:34.504Z,5.30
2018-04-09T04:13:38.529Z,6.03
2018-04-09T04:14:42.539Z,5.60
2018-04-09T04:19:01.413Z,6.05
2018-04-09T04:22:13.686Z,6.20
2018-04-09T04:23:17.657Z,5.28
2018-04-09T04:24:21.636Z,5.95
2018-04-09T04:25:25.790Z,6.53
2018-04-09T04:26:29.793Z,6.00
2018-04-09T04:27:33.804Z,5.37
2018-04-09T04:28:37.818Z,5.40
2018-04-09T04:29:42.565Z,5.40
2018-04-09T04:30:46.548Z,5.82
2018-04-09T04:31:51.311Z,5.78
2018-04-09T04:32:55.769Z,5.28
2018-04-09T04:34:00.920Z,5.37
2018-04-09T04:35:04.893Z,5.82
2018-04-09T04:36:09.665Z,6.07
2018-04-09T04:37:13.648Z,5.95
2018-04-09T04:38:17.651Z,5.50
2018-04-09T04:39:21.627Z,5.55
2018-04-09T04:40:25.671Z,5.55
2018-04-09T04:41:29.662Z,5.22
2018-04-09T04:42:33.612Z,5.03
2018-04-09T04:43:38.348Z,5.78
2018-04-09T04:44:42.304Z,5.65
2018-04-09T04:45:46.265Z,5.57
2018-04-09T04:46:50.189Z,5.47
2018-04-09T04:47:54.176Z,5.37
2018-04-09T04:48:58.154Z,6.22
2018-04-09T04:50:02.101Z,5.40
2018-04-09T04:51:06.101Z,5.47
2018-04-09T04:52:10.072Z,4.80
2018-04-09T04:53:14.041Z,5.50
2018-04-09T04:54:17.892Z,5.07
2018-04-09T04:55:22.477Z,5.18
2018-04-09T04:56:26.266Z,5.30
2018-04-09T04:57:30.110Z,5.53
2018-04-09T04:58:33.901Z,5.50
2018-04-09T04:59:37.791Z,4.97
2018-04-09T05:00:41.608Z,5.97
2018-04-09T05:01:46.192Z,5.87
2018-04-09T05:02:50.010Z,5.68
2018-04-09T05:03:53.948Z,5.32
2018-04-09T05:04:57.911Z,5.70
2018-04-09T05:06:01.874Z,4.72
2018-04-09T05:07:05.920Z,5.25
2018-04-09T05:08:10.756Z,5.78
2018-04-09T05:09:14.701Z,5.47
2018-04-09T05:10:18.726Z,5.57
2018-04-09T05:11:22.801Z,6.20
2018-04-09T05:12:26.651Z,6.60
2018-04-09T05:13:30.620Z,5.60
2018-04-09T05:14:34.572Z,5.30
2018-04-09T05:15:38.668Z,5.75
2018-04-09T05:16:42.614Z,5.28
2018-04-09T05:17:46.536Z,5.45
2018-04-09T05:18:51.269Z,5.70
2018-04-09T05:19:55.260Z,5.10
2018-04-09T05:21:00.004Z,5.82
2018-04-09T05:22:03.960Z,5.30
2018-04-09T05:23:07.911Z,5.40
2018-04-09T05:24:11.908Z,6.25
2018-04-09T05:25:15.715Z,5.20
2018-04-09T05:26:19.575Z,6.12
2018-04-09T05:27:23.659Z,6.05
2018-04-09T05:28:28.209Z,5.47
2018-04-09T05:29:31.996Z,5.82
2018-04-09T05:30:35.760Z,5.43
2018-04-09T05:31:40.381Z,5.12
2018-04-09T05:32:44.996Z,5.10
2018-04-09T05:33:49.867Z,5.87
2018-04-09T05:34:53.852Z,6.20
2018-04-09T05:35:57.825Z,5.35
2018-04-09T05:37:01.890Z,5.28
2018-04-09T05:38:05.840Z,5.62
2018-04-09T05:39:09.837Z,6.12
2018-04-09T05:40:13.709Z,6.20
2018-04-09T05:41:18.278Z,6.47
2018-04-09T05:42:22.083Z,5.28
2018-04-09T05:43:25.900Z,5.53
2018-04-09T05:44:29.746Z,5.30
2018-04-09T05:45:33.759Z,5.72
2018-04-09T05:46:37.707Z,5.20
2018-04-09T05:47:42.461Z,5.28
2018-04-09T05:48:46.432Z,5.93
2018-04-09T05:49:51.165Z,6.03
2018-04-09T05:50:55.116Z,5.18
2018-04-09T05:51:59.120Z,4.85
2018-04-09T05:53:03.158Z,5.40
2018-04-09T05:54:07.166Z,4.90
2018-04-09T05:55:11.261Z,4.97
2018-04-09T05:56:19.040Z,6.40
2018-04-09T05:57:23.829Z,5.68
2018-04-09T05:58:27.858Z,5.78
2018-04-09T05:59:32.664Z,4.75
2018-04-09T06:00:37.457Z,5.82
2018-04-09T06:01:41.520Z,5.40
2018-04-09T06:02:45.469Z,5.32
2018-04-09T06:03:49.507Z,4.75
2018-04-09T06:04:53.516Z,5.65
2018-04-09T06:05:57.493Z,5.53
2018-04-09T06:07:02.239Z,6.05
2018-04-09T06:08:06.220Z,5.07
2018-04-09T06:09:10.975Z,5.45
2018-04-09T06:10:14.947Z,5.20
2018-04-09T06:11:18.833Z,5.15
2018-04-09T06:12:22.668Z,6.15
2018-04-09T06:13:26.533Z,4.97
2018-04-09T06:14:30.362Z,5.78
2018-04-09T06:15:34.136Z,5.87
2018-04-09T06:16:37.984Z,6.60
2018-04-09T06:17:41.764Z,5.60
2018-04-09T06:18:46.114Z,5.20
2018-04-09T06:19:50.081Z,5.25
2018-04-09T06:20:54.141Z,5.60
2018-04-09T06:21:58.135Z,6.45
2018-04-09T06:23:02.137Z,5.70
2018-04-09T06:24:06.526Z,5.72
2018-04-09T06:25:10.501Z,8.00
2018-04-09T06:26:14.556Z,5.80
2018-04-09T06:27:18.594Z,5.82
2018-04-09T06:28:22.942Z,6.45
2018-04-09T06:29:26.993Z,5.60
2018-04-09T06:30:31.042Z,4.57
2018-04-09T06:31:36.363Z,5.90
2018-04-09T06:32:40.377Z,5.70
2018-04-09T06:33:44.348Z,6.32
2018-04-09T06:34:49.116Z,5.62
2018-04-09T06:35:53.091Z,6.00
2018-04-09T06:36:57.912Z,5.20
2018-04-09T06:38:01.928Z,6.07
2018-04-09T06:39:07.155Z,6.22
2018-04-09T06:40:11.154Z,6.25
2018-04-09T06:41:15.176Z,6.53
2018-04-09T06:42:19.171Z,6.03
2018-04-09T06:43:23.145Z,6.55
2018-04-09T06:44:27.148Z,5.95
2018-04-09T06:45:31.195Z,6.45
2018-04-09T06:46:35.200Z,6.60
2018-04-09T06:47:39.174Z,5.65
2018-04-09T06:48:43.125Z,5.65
2018-04-09T06:49:47.930Z,6.20
2018-04-09T06:50:52.792Z,5.70
2018-04-09T06:51:56.780Z,5.78
2018-04-09T06:53:00.760Z,6.12
2018-04-09T06:54:05.562Z,6.32
2018-04-09T06:55:09.619Z,6.05
2018-04-09T06:56:13.636Z,4.90
2018-04-09T06:57:17.674Z,5.15
2018-04-09T06:58:22.355Z,5.30
2018-04-09T06:59:26.216Z,6.30
2018-04-09T07:00:30.060Z,5.45
2018-04-09T07:01:33.935Z,5.40
2018-04-09T07:02:38.132Z,6.07
2018-04-09T07:03:41.985Z,6.07
2018-04-09T07:04:46.718Z,5.55
2018-04-09T07:05:50.703Z,5.12
2018-04-09T07:06:55.296Z,5.30
2018-04-09T07:07:59.299Z,6.35
2018-04-09T07:09:04.309Z,5.80
2018-04-09T07:10:08.655Z,5.93
2018-04-09T07:11:13.455Z,5.80
2018-04-09T07:12:18.196Z,5.62
2018-04-09T07:13:22.176Z,5.80
2018-04-09T07:14:26.752Z,5.57
2018-04-09T07:15:30.646Z,5.50
2018-04-09T07:16:34.525Z,6.80
2018-04-09T07:17:38.325Z,5.75
2018-04-09T07:18:42.424Z,6.25
2018-04-09T07:19:46.259Z,5.93
2018-04-09T07:20:50.066Z,6.15
2018-04-09T07:21:53.990Z,6.22
2018-04-09T07:22:57.872Z,5.50
2018-04-09T07:24:02.784Z,6.50
2018-04-09T07:25:07.232Z,6.15
2018-04-09T07:26:11.259Z,6.47
2018-04-09T07:27:15.293Z,7.10
2018-04-09T07:28:19.264Z,5.53
2018-04-09T07:29:23.288Z,6.68
2018-04-09T07:30:27.264Z,6.22
2018-04-09T07:31:31.301Z,7.10
2018-04-09T07:32:36.124Z,6.35
2018-04-09T07:33:40.892Z,5.80
2018-04-09T07:34:45.081Z,8.23
2018-04-09T07:35:48.969Z,6.28
2018-04-09T07:36:52.962Z,5.53
2018-04-09T07:37:57.043Z,5.50
2018-04-09T07:39:01.817Z,6.28
2018-04-09T07:40:05.848Z,8.48
2018-04-09T07:41:09.827Z,5.90
2018-04-09T07:42:13.846Z,6.00
2018-04-09T07:43:17.794Z,5.37
2018-04-09T07:44:21.809Z,5.57
2018-04-09T07:46:19.381Z,6.90
2018-04-09T07:47:36.912Z,6.93
2018-04-09T07:48:41.111Z,7.22
2018-04-09T07:49:45.069Z,6.93
2018-04-09T07:50:49.132Z,6.90
2018-04-09T07:51:53.946Z,7.50
2018-04-09T07:52:58.327Z,6.78
2018-04-09T07:54:02.352Z,6.68
2018-04-09T07:55:06.238Z,7.28
2018-04-09T07:56:10.057Z,8.10
2018-04-09T07:57:14.678Z,6.95
2018-04-09T07:58:18.488Z,6.90
2018-04-09T07:59:22.276Z,8.05
2018-04-09T08:00:26.947Z,6.87
2018-04-09T08:01:30.905Z,7.12
2018-04-09T08:02:34.771Z,8.10
2018-04-09T08:03:39.574Z,7.28
2018-04-09T08:04:43.904Z,7.35
2018-04-09T08:05:48.705Z,7.37
2018-04-09T08:06:52.575Z,8.15
2018-04-09T08:07:56.621Z,8.10
2018-04-09T08:09:01.259Z,7.50
2018-04-09T08:10:05.147Z,7.87
2018-04-09T08:11:09.392Z,7.97
2018-04-09T08:12:13.273Z,8.45
2018-04-09T08:13:17.206Z,8.90
2018-04-09T08:14:21.104Z,7.82
2018-04-09T08:15:25.135Z,8.27
2018-04-09T08:16:29.227Z,8.80
2018-04-09T08:17:34.091Z,8.13
2018-04-09T08:18:38.165Z,8.30
2018-04-09T08:19:42.172Z,7.93
2018-04-09T08:20:46.207Z,8.15
2018-04-09T08:21:50.203Z,8.45
2018-04-09T08:22:54.968Z,9.23
2018-04-09T08:24:00.142Z,8.23
2018-04-09T08:25:04.235Z,9.38
2018-04-09T08:26:08.372Z,8.70
2018-04-09T08:27:12.837Z,7.80
2018-04-09T08:28:16.687Z,8.88
2018-04-09T08:29:20.544Z,9.10
2018-04-09T08:30:24.395Z,8.32
2018-04-09T08:31:28.200Z,8.10
2018-04-09T08:32:32.812Z,9.80
2018-04-09T08:33:37.584Z,8.57
2018-04-09T08:34:41.404Z,8.50
2018-04-09T08:35:45.204Z,9.25
2018-04-09T08:36:49.004Z,9.75
2018-04-09T08:37:52.867Z,9.38
2018-04-09T08:38:56.727Z,9.32
2018-04-09T08:40:00.600Z,7.97
2018-04-09T08:41:04.493Z,9.88
2018-04-09T08:42:09.184Z,9.85
2018-04-09T08:43:13.049Z,9.38
2018-04-09T08:44:17.050Z,10.15
2018-04-09T08:45:21.049Z,9.35
2018-04-09T08:46:25.860Z,9.40
2018-04-09T08:47:29.864Z,9.10
2018-04-09T08:48:33.896Z,10.55
2018-04-09T08:49:38.146Z,8.85
2018-04-09T08:50:42.936Z,9.40
2018-04-09T08:51:46.979Z,10.32
2018-04-09T08:52:51.803Z,9.02
2018-04-09T08:53:55.972Z,10.27
2018-04-09T08:54:59.973Z,9.35
2018-04-09T08:56:03.984Z,10.60
2018-04-09T08:57:08.778Z,9.52
2018-04-09T08:58:12.816Z,10.27
2018-04-09T08:59:17.616Z,9.77
2018-04-09T09:00:21.642Z,9.95
2018-04-09T09:01:26.473Z,9.80
2018-04-09T09:02:30.437Z,9.55
2018-04-09T09:03:34.308Z,9.50
2018-04-09T09:04:38.225Z,9.30
2018-04-09T09:05:42.609Z,9.15
2018-04-09T09:06:49.653Z,10.43
2018-04-09T09:08:08.997Z,10.60
2018-04-09T09:09:13.414Z,10.52
2018-04-09T09:10:18.796Z,9.23
2018-04-09T09:11:22.660Z,9.52
2018-04-09T09:12:26.979Z,10.32
2018-04-09T09:13:31.743Z,9.45
2018-04-09T09:14:36.669Z,9.25
2018-04-09T09:15:41.860Z,9.45
2018-04-09T09:16:46.809Z,8.50
2018-04-09T09:17:51.313Z,9.90
2018-04-09T09:20:24.718Z,10.85
2018-04-09T09:21:29.371Z,9.35
2018-04-09T09:22:33.248Z,9.65
2018-04-09T09:23:38.565Z,10.68
2018-04-09T09:24:43.200Z,10.00
2018-04-09T09:25:47.684Z,10.40
2018-04-09T09:26:52.291Z,10.25
2018-04-09T09:27:56.505Z,11.70
2018-04-09T09:29:01.124Z,11.50
2018-04-09T09:30:06.141Z,10.90
2018-04-09T09:31:09.996Z,9.63
2018-04-09T09:32:14.623Z,9.77
2018-04-09T09:33:18.617Z,9.73
2018-04-09T09:34:22.660Z,10.63
2018-04-09T09:35:27.478Z,10.85
2018-04-09T09:36:32.287Z,10.40
2018-04-09T09:37:37.375Z,10.82
2018-04-09T09:38:41.587Z,9.93
2018-04-09T09:39:49.719Z,9.02
2018-04-09T09:40:55.077Z,10.75
2018-04-09T09:41:59.219Z,9.90
2018-04-09T09:43:03.578Z,9.30
2018-04-09T09:44:08.836Z,9.25
2018-04-09T09:45:14.527Z,11.70
2018-04-09T09:46:19.748Z,11.55
2018-04-09T09:47:23.733Z,9.35
2018-04-09T09:48:27.761Z,10.68
2018-04-09T09:49:32.819Z,12.00
2018-04-09T09:50:37.149Z,10.45
2018-04-09T09:51:41.295Z,10.85
2018-04-09T09:52:45.790Z,10.50
2018-04-09T09:53:50.037Z,11.05
2018-04-09T09:54:54.981Z,10.88
2018-04-09T09:55:58.925Z,10.98
2018-04-09T09:57:02.854Z,10.40
2018-04-09T09:58:06.707Z,10.35
2018-04-09T09:59:10.592Z,11.50
2018-04-09T10:00:14.636Z,11.10
2018-04-09T10:01:19.958Z,10.30
2018-04-09T10:02:28.222Z,11.25
2018-04-09T10:03:32.539Z,10.25
2018-04-09T10:04:36.628Z,11.27
2018-04-09T10:05:40.822Z,11.35
2018-04-09T10:06:44.832Z,11.38
2018-04-09T10:07:49.005Z,12.18
2018-04-09T10:08:53.801Z,12.13
2018-04-09T10:09:58.793Z,11.70
2018-04-09T10:11:02.875Z,11.43
2018-04-09T10:12:06.925Z,12.68
2018-04-09T10:13:11.373Z,12.40
2018-04-09T10:14:15.428Z,11.65
2018-04-09T10:15:20.250Z,11.05
2018-04-09T10:16:25.014Z,12.57
2018-04-09T10:17:29.072Z,11.25
2018-04-09T10:18:34.406Z,11.68
2018-04-09T10:19:39.252Z,10.90
2018-04-09T10:20:43.376Z,11.27
2018-04-09T10:21:47.718Z,13.35
2018-04-09T10:22:51.996Z,11.60
2018-04-09T10:23:56.735Z,11.70
2018-04-09T10:25:00.768Z,12.30
2018-04-09T10:26:05.640Z,11.23
2018-04-09T10:27:09.735Z,11.55
2018-04-09T10:28:17.133Z,11.20
2018-04-09T10:29:21.864Z,12.98
2018-04-09T10:30:26.306Z,11.55
2018-04-09T10:31:31.214Z,11.95
2018-04-09T10:32:36.625Z,12.80
2018-04-09T10:33:40.925Z,12.05
2018-04-09T10:34:45.225Z,11.77
2018-04-09T10:35:49.326Z,11.68
2018-04-09T10:36:53.476Z,12.80
2018-04-09T10:37:58.265Z,11.35
2018-04-09T10:39:02.124Z,10.82
2018-04-09T10:40:05.988Z,11.23
2018-04-09T10:41:10.653Z,12.30
2018-04-09T10:42:14.890Z,11.05
2018-04-09T10:43:19.010Z,13.45
2018-04-09T10:44:23.950Z,11.45
2018-04-09T10:45:28.034Z,13.48
2018-04-09T10:46:32.840Z,11.63
2018-04-09T10:47:37.838Z,12.25
2018-04-09T10:48:42.106Z,12.10
2018-04-09T10:49:46.391Z,11.10
2018-04-09T10:50:51.097Z,11.82
2018-04-09T10:51:56.221Z,11.85
2018-04-09T10:53:00.950Z,12.45
2018-04-09T10:54:05.848Z,12.05
2018-04-09T10:55:10.297Z,10.85
2018-04-09T10:56:14.586Z,12.63
2018-04-09T10:57:19.110Z,12.23
2018-04-09T10:58:23.362Z,11.95
2018-04-09T10:59:27.841Z,11.32
2018-04-09T11:00:31.948Z,13.10
2018-04-09T11:01:35.996Z,12.50
2018-04-09T11:02:40.001Z,11.52
2018-04-09T11:03:44.005Z,11.68
2018-04-09T11:04:48.282Z,12.32
2018-04-09T11:05:52.497Z,12.00
2018-04-09T11:06:56.633Z,11.50
2018-04-09T11:08:01.406Z,12.43
2018-04-09T11:09:05.452Z,11.73
2018-04-09T11:10:10.368Z,12.43
2018-04-09T11:11:15.310Z,11.32
2018-04-09T11:12:19.267Z,11.80
2018-04-09T11:13:23.575Z,11.20
2018-04-09T11:14:28.386Z,11.15
2018-04-09T11:15:32.313Z,12.75
2018-04-09T11:16:36.535Z,11.75
2018-04-09T11:17:40.576Z,12.10
2018-04-09T11:18:45.788Z,11.50
2018-04-09T11:19:50.419Z,10.68
2018-04-09T11:20:54.942Z,11.75
2018-04-09T11:22:00.259Z,12.93
2018-04-09T11:23:04.527Z,12.88
2018-04-09T11:24:09.226Z,13.75
2018-04-09T11:25:14.258Z,11.50
2018-04-09T11:26:19.273Z,13.30
2018-04-09T11:27:24.113Z,12.68
2018-04-09T11:28:28.647Z,12.37
2018-04-09T11:29:32.737Z,12.90
2018-04-09T11:30:36.833Z,13.32
2018-04-09T11:31:40.877Z,13.40
2018-04-09T11:32:45.683Z,13.88
2018-04-09T11:33:51.311Z,14.30
2018-04-09T11:34:56.271Z,12.77
2018-04-09T11:36:00.661Z,13.35
2018-04-09T11:37:05.573Z,13.50
2018-04-09T11:38:10.151Z,12.85
2018-04-09T11:39:15.223Z,12.75
2018-04-09T11:40:19.355Z,13.27
2018-04-09T11:41:24.217Z,13.43
2018-04-09T11:42:30.610Z,12.75
2018-04-09T11:43:35.719Z,13.70
2018-04-09T11:44:40.899Z,13.32
2018-04-09T11:45:46.100Z,13.43
2018-04-09T11:46:50.203Z,12.82
2018-04-09T11:47:54.544Z,13.13
2018-04-09T11:48:58.583Z,12.82
2018-04-09T11:50:02.889Z,13.88
2018-04-09T11:51:06.958Z,13.20
2018-04-09T11:52:12.562Z,13.88
2018-04-09T11:53:16.935Z,13.23
2018-04-09T11:54:20.958Z,13.55
2018-04-09T11:55:25.263Z,13.40
2018-04-09T11:56:29.253Z,14.73
2018-04-09T11:57:33.094Z,13.02
2018-04-09T11:58:37.722Z,13.40
2018-04-09T11:59:42.464Z,12.43
2018-04-09T12:00:46.442Z,13.73
2018-04-09T12:01:51.156Z,13.75
2018-04-09T12:02:55.757Z,14.05
2018-04-09T12:04:00.382Z,12.75
2018-04-09T12:05:04.371Z,13.55
2018-04-09T12:06:09.048Z,12.68
2018-04-09T12:07:13.101Z,13.88
2018-04-09T12:08:17.115Z,13.00
2018-04-09T12:09:20.967Z,13.98
2018-04-09T12:10:24.853Z,13.95
2018-04-09T12:11:30.769Z,13.77
2018-04-09T12:12:34.891Z,13.20
2018-04-09T12:13:39.022Z,14.93
2018-04-09T12:14:51.638Z,13.45
2018-04-09T12:16:01.024Z,14.02
2018-04-09T12:17:06.859Z,13.10
2018-04-09T12:18:11.132Z,13.62
2018-04-09T12:19:15.301Z,13.02
2018-04-09T12:20:19.457Z,13.68
2018-04-09T12:21:23.551Z,12.52
2018-04-09T12:22:27.651Z,13.30
2018-04-09T12:23:32.140Z,13.00
2018-04-09T12:24:36.187Z,12.25
2018-04-09T12:25:40.158Z,14.73
2018-04-09T12:26:44.132Z,14.68
2018-04-09T12:27:48.862Z,13.40
2018-04-09T12:28:54.309Z,13.40
2018-04-09T12:30:01.293Z,14.45
2018-04-09T12:31:07.515Z,14.65
2018-04-09T12:32:11.637Z,13.00
2018-04-09T12:33:16.183Z,12.15
2018-04-09T12:34:20.339Z,12.25
2018-04-09T12:35:25.271Z,11.88
2018-04-09T12:36:29.289Z,13.95
2018-04-09T12:37:33.869Z,13.98
2018-04-09T12:38:38.160Z,13.85
2018-04-09T12:39:44.226Z,13.35
2018-04-09T12:40:48.410Z,13.25
2018-04-09T12:41:53.329Z,13.05
2018-04-09T12:42:57.352Z,12.35
2018-04-09T12:44:02.228Z,12.40
2018-04-09T12:45:06.532Z,13.27
2018-04-09T12:46:10.936Z,14.00
2018-04-09T12:47:15.486Z,12.20
2018-04-09T12:48:19.655Z,13.32
2018-04-09T12:49:23.688Z,12.80
2018-04-09T12:50:27.603Z,12.63
2018-04-09T12:51:32.436Z,12.80
2018-04-09T12:52:36.469Z,13.50
2018-04-09T12:53:40.323Z,12.20
2018-04-09T12:54:44.887Z,13.43
2018-04-09T12:55:48.833Z,12.98
2018-04-09T12:56:54.561Z,13.75
2018-04-09T12:57:58.472Z,13.43
2018-04-09T12:59:03.075Z,12.90
2018-04-09T13:01:43.504Z,12.13
2018-04-09T13:02:47.486Z,11.32
2018-04-09T13:03:51.953Z,12.80
2018-04-09T13:05:01.101Z,12.05
2018-04-09T13:06:10.715Z,11.38
2018-04-09T13:07:20.148Z,12.40
2018-04-09T13:08:24.078Z,13.60
2018-04-09T13:09:33.547Z,12.37
2018-04-09T13:10:39.397Z,12.40
2018-04-09T13:11:43.246Z,13.27
2018-04-09T13:12:48.350Z,12.60
2018-04-09T13:13:52.878Z,12.00
2018-04-09T13:14:57.139Z,12.35
2018-04-09T13:16:02.402Z,11.40
2018-04-09T13:17:07.325Z,12.35
2018-04-09T13:18:12.855Z,11.82
2018-04-09T13:19:17.676Z,12.00
2018-04-09T13:20:22.402Z,13.07
2018-04-09T13:22:50.199Z,12.55
2018-04-09T13:23:54.993Z,12.40
2018-04-09T13:24:59.134Z,11.63
2018-04-09T13:26:04.128Z,12.57
2018-04-09T13:27:08.602Z,12.55
2018-04-09T13:28:13.022Z,12.95
2018-04-09T13:29:18.530Z,11.55
2018-04-09T13:30:22.956Z,12.82
2018-04-09T13:31:27.512Z,12.37
2018-04-09T13:32:33.351Z,11.45
2018-04-09T13:33:38.984Z,12.35
2018-04-09T13:34:43.254Z,11.63
2018-04-09T13:35:49.340Z,11.75
2018-04-09T13:36:53.826Z,11.82
2018-04-09T13:37:58.751Z,12.45
2018-04-09T13:39:04.239Z,13.15
2018-04-09T13:40:09.563Z,11.50
2018-04-09T13:41:14.099Z,12.80
2018-04-09T13:42:19.619Z,13.00
2018-04-09T13:43:24.374Z,11.90
2018-04-09T13:44:29.629Z,13.27
2018-04-09T13:45:37.422Z,13.55
2018-04-09T13:46:41.805Z,11.38
2018-04-09T13:47:50.485Z,13.07
2018-04-09T13:48:55.093Z,12.13
2018-04-09T13:50:03.331Z,12.35
2018-04-09T13:51:08.255Z,12.32
2018-04-09T13:52:14.000Z,13.13
2018-04-09T13:53:19.626Z,11.93
2018-04-09T13:54:24.040Z,12.00
2018-04-09T13:55:28.683Z,12.45
2018-04-09T13:56:34.346Z,12.80
2018-04-09T13:57:39.974Z,12.75
2018-04-09T13:58:45.507Z,12.40
2018-04-09T14:01:20.432Z,12.30
2018-04-09T14:02:24.780Z,12.02
2018-04-09T14:03:29.943Z,12.40
2018-04-09T14:04:34.400Z,14.18
2018-04-09T14:05:41.788Z,12.82
2018-04-09T14:06:47.215Z,13.52
2018-04-09T14:07:54.478Z,14.10
2018-04-09T14:08:59.771Z,13.32
2018-04-09T14:10:05.175Z,13.73
2018-04-09T14:11:10.607Z,15.20
2018-04-09T14:12:15.855Z,12.80
2018-04-09T14:13:20.051Z,12.57
2018-04-09T14:14:24.574Z,14.55
2018-04-09T14:15:28.660Z,14.98
2018-04-09T14:16:33.354Z,13.85
2018-04-09T14:17:37.270Z,12.55
2018-04-09T14:18:41.496Z,13.85
2018-04-09T14:19:45.405Z,13.98
2018-04-09T14:20:49.307Z,14.15
2018-04-09T14:21:53.230Z,15.32
2018-04-09T14:22:57.952Z,16.02